sensor_id;sensor_type;location;lat;lon;timestamp;temperature;humidity
30250;DHT22;17064;47.974;13.826;2023-07-31T00:03:01;15.90;99.90
30250;DHT22;17064;47.974;13.826;2023-07-31T00:08:02;15.90;99.90
30250;DHT22;17064;47.974;13.826;2023-07-31T00:13:03;16.00;99.90
30250;DHT22;17064;47.974;13.826;2023-07-31T00:18:03;16.00;99.90
30250;DHT22;17064;47.974;13.826;2023-07-31T00:23:04;15.90;99.90
30250;DHT22;17064;47.974;13.826;2023-07-31T00:28:05;15.90;99.90
30250;DHT22;17064;47.974;13.826;2023-07-31T00:33:06;15.90;99.90
30250;DHT22;17064;47.974;13.826;2023-07-31T00:38:06;15.90;99.90
30250;DHT22;17064;47.974;13.826;2023-07-31T00:43:07;15.80;99.90
30250;DHT22;17064;47.974;13.826;2023-07-31T00:48:08;15.80;99.90
30250;DHT22;17064;47.974;13.826;2023-07-31T00:53:08;15.80;99.90
30250;DHT22;17064;47.974;13.826;2023-07-31T00:58:09;15.70;99.90
30250;DHT22;17064;47.974;13.826;2023-07-31T01:03:10;15.70;99.90
30250;DHT22;17064;47.974;13.826;2023-07-31T01:08:13;15.60;99.90
30250;DHT22;17064;47.974;13.826;2023-07-31T01:13:17;15.60;99.90
30250;DHT22;17064;47.974;13.826;2023-07-31T01:18:18;15.60;99.90
30250;DHT22;17064;47.974;13.826;2023-07-31T01:28:55;15.50;99.90
30250;DHT22;17064;47.974;13.826;2023-07-31T01:34:02;15.50;99.90
30250;DHT22;17064;47.974;13.826;2023-07-31T01:39:03;15.50;99.90
30250;DHT22;17064;47.974;13.826;2023-07-31T01:44:06;15.50;99.90
30250;DHT22;17064;47.974;13.826;2023-07-31T01:49:07;15.50;99.90
30250;DHT22;17064;47.974;13.826;2023-07-31T01:54:08;15.40;99.90
30250;DHT22;17064;47.974;13.826;2023-07-31T01:59:08;15.40;99.90
30250;DHT22;17064;47.974;13.826;2023-07-31T02:04:09;15.40;99.90
30250;DHT22;17064;47.974;13.826;2023-07-31T02:09:10;15.40;99.90
30250;DHT22;17064;47.974;13.826;2023-07-31T02:14:10;15.40;99.90
30250;DHT22;17064;47.974;13.826;2023-07-31T02:19:11;15.40;99.90
30250;DHT22;17064;47.974;13.826;2023-07-31T02:24:12;15.30;99.90
30250;DHT22;17064;47.974;13.826;2023-07-31T02:29:12;15.40;99.90
30250;DHT22;17064;47.974;13.826;2023-07-31T02:34:13;15.40;99.90
30250;DHT22;17064;47.974;13.826;2023-07-31T02:39:14;15.40;99.90
30250;DHT22;17064;47.974;13.826;2023-07-31T02:44:14;15.40;99.90
30250;DHT22;17064;47.974;13.826;2023-07-31T02:49:15;15.50;99.90
30250;DHT22;17064;47.974;13.826;2023-07-31T02:54:16;15.50;99.90
30250;DHT22;17064;47.974;13.826;2023-07-31T02:59:17;15.50;99.90
30250;DHT22;17064;47.974;13.826;2023-07-31T03:04:17;15.50;99.90
30250;DHT22;17064;47.974;13.826;2023-07-31T03:09:18;15.40;99.90
30250;DHT22;17064;47.974;13.826;2023-07-31T03:14:19;15.40;99.90
30250;DHT22;17064;47.974;13.826;2023-07-31T03:19:19;15.40;99.90
30250;DHT22;17064;47.974;13.826;2023-07-31T03:24:20;15.30;99.90
30250;DHT22;17064;47.974;13.826;2023-07-31T03:29:21;15.20;99.90
30250;DHT22;17064;47.974;13.826;2023-07-31T03:34:22;15.20;99.90
30250;DHT22;17064;47.974;13.826;2023-07-31T03:39:22;15.20;99.90
30250;DHT22;17064;47.974;13.826;2023-07-31T03:44:23;15.20;99.90
30250;DHT22;17064;47.974;13.826;2023-07-31T03:49:24;15.10;99.90
30250;DHT22;17064;47.974;13.826;2023-07-31T03:54:25;15.10;99.90
30250;DHT22;17064;47.974;13.826;2023-07-31T03:59:25;15.10;99.90
30250;DHT22;17064;47.974;13.826;2023-07-31T04:04:26;15.00;99.90
30250;DHT22;17064;47.974;13.826;2023-07-31T04:09:27;15.00;99.90
30250;DHT22;17064;47.974;13.826;2023-07-31T04:14:27;15.00;99.90
30250;DHT22;17064;47.974;13.826;2023-07-31T04:19:28;15.00;99.90
30250;DHT22;17064;47.974;13.826;2023-07-31T04:24:29;15.00;99.90
30250;DHT22;17064;47.974;13.826;2023-07-31T04:29:29;15.00;99.90
30250;DHT22;17064;47.974;13.826;2023-07-31T04:34:30;15.10;99.90
30250;DHT22;17064;47.974;13.826;2023-07-31T04:39:30;15.10;99.90
30250;DHT22;17064;47.974;13.826;2023-07-31T04:44:31;15.20;99.90
30250;DHT22;17064;47.974;13.826;2023-07-31T04:49:32;15.20;99.90
30250;DHT22;17064;47.974;13.826;2023-07-31T04:54:33;15.20;99.90
30250;DHT22;17064;47.974;13.826;2023-07-31T04:59:33;15.30;99.90
30250;DHT22;17064;47.974;13.826;2023-07-31T05:04:34;15.30;99.90
30250;DHT22;17064;47.974;13.826;2023-07-31T05:09:35;15.30;99.90
30250;DHT22;17064;47.974;13.826;2023-07-31T05:14:36;15.30;99.90
30250;DHT22;17064;47.974;13.826;2023-07-31T05:19:36;15.30;99.90
30250;DHT22;17064;47.974;13.826;2023-07-31T05:24:37;15.30;99.90
30250;DHT22;17064;47.974;13.826;2023-07-31T05:29:38;15.30;99.90
30250;DHT22;17064;47.974;13.826;2023-07-31T05:34:38;15.40;99.90
30250;DHT22;17064;47.974;13.826;2023-07-31T05:39:39;15.30;99.90
30250;DHT22;17064;47.974;13.826;2023-07-31T05:44:40;15.40;99.90
30250;DHT22;17064;47.974;13.826;2023-07-31T05:49:41;15.50;99.90
30250;DHT22;17064;47.974;13.826;2023-07-31T05:54:42;15.70;99.90
30250;DHT22;17064;47.974;13.826;2023-07-31T05:59:43;16.00;99.90
30250;DHT22;17064;47.974;13.826;2023-07-31T06:04:43;16.40;99.90
30250;DHT22;17064;47.974;13.826;2023-07-31T06:09:44;16.70;99.90
30250;DHT22;17064;47.974;13.826;2023-07-31T06:14:45;17.10;99.90
30250;DHT22;17064;47.974;13.826;2023-07-31T06:19:45;17.30;99.90
30250;DHT22;17064;47.974;13.826;2023-07-31T06:24:47;17.70;99.90
30250;DHT22;17064;47.974;13.826;2023-07-31T06:29:49;17.90;99.90
30250;DHT22;17064;47.974;13.826;2023-07-31T06:34:50;18.10;99.90
30250;DHT22;17064;47.974;13.826;2023-07-31T06:39:51;18.30;99.90
30250;DHT22;17064;47.974;13.826;2023-07-31T06:44:52;18.60;99.90
30250;DHT22;17064;47.974;13.826;2023-07-31T06:49:53;18.80;99.90
30250;DHT22;17064;47.974;13.826;2023-07-31T06:55:09;19.00;99.90
30250;DHT22;17064;47.974;13.826;2023-07-31T07:00:17;19.30;99.90
30250;DHT22;17064;47.974;13.826;2023-07-31T07:05:18;19.50;99.90
30250;DHT22;17064;47.974;13.826;2023-07-31T07:10:19;19.80;99.90
30250;DHT22;17064;47.974;13.826;2023-07-31T07:15:20;20.10;99.90
30250;DHT22;17064;47.974;13.826;2023-07-31T07:20:20;20.30;99.90
30250;DHT22;17064;47.974;13.826;2023-07-31T07:25:21;20.50;99.90
30250;DHT22;17064;47.974;13.826;2023-07-31T07:30:22;20.70;99.90
30250;DHT22;17064;47.974;13.826;2023-07-31T07:35:25;20.90;98.80
30250;DHT22;17064;47.974;13.826;2023-07-31T07:40:26;21.10;98.60
30250;DHT22;17064;47.974;13.826;2023-07-31T07:45:26;21.30;98.60
30250;DHT22;17064;47.974;13.826;2023-07-31T07:50:27;21.40;97.40
30250;DHT22;17064;47.974;13.826;2023-07-31T07:55:28;21.50;96.90
30250;DHT22;17064;47.974;13.826;2023-07-31T08:00:28;21.80;94.80
30250;DHT22;17064;47.974;13.826;2023-07-31T08:05:29;22.00;92.90
30250;DHT22;17064;47.974;13.826;2023-07-31T08:10:30;22.20;92.70
30250;DHT22;17064;47.974;13.826;2023-07-31T08:15:31;22.40;90.20
30250;DHT22;17064;47.974;13.826;2023-07-31T08:20:32;22.50;86.30
30250;DHT22;17064;47.974;13.826;2023-07-31T08:25:35;22.40;88.40
30250;DHT22;17064;47.974;13.826;2023-07-31T08:30:35;22.20;86.20
30250;DHT22;17064;47.974;13.826;2023-07-31T08:35:37;22.10;87.40
30250;DHT22;17064;47.974;13.826;2023-07-31T08:40:38;21.90;90.20
30250;DHT22;17064;47.974;13.826;2023-07-31T08:45:41;21.90;86.70
30250;DHT22;17064;47.974;13.826;2023-07-31T08:50:42;21.90;87.30
30250;DHT22;17064;47.974;13.826;2023-07-31T08:55:44;22.00;88.80
30250;DHT22;17064;47.974;13.826;2023-07-31T09:00:46;22.10;84.20
30250;DHT22;17064;47.974;13.826;2023-07-31T09:05:47;22.20;86.40
30250;DHT22;17064;47.974;13.826;2023-07-31T09:10:48;22.40;89.30
30250;DHT22;17064;47.974;13.826;2023-07-31T09:15:52;22.50;87.40
30250;DHT22;17064;47.974;13.826;2023-07-31T09:21:06;22.70;88.20
30250;DHT22;17064;47.974;13.826;2023-07-31T09:26:07;23.00;81.20
30250;DHT22;17064;47.974;13.826;2023-07-31T09:31:08;23.10;85.40
30250;DHT22;17064;47.974;13.826;2023-07-31T09:36:09;23.30;84.90
30250;DHT22;17064;47.974;13.826;2023-07-31T09:41:10;23.70;85.10
30250;DHT22;17064;47.974;13.826;2023-07-31T09:46:14;24.20;75.10
30250;DHT22;17064;47.974;13.826;2023-07-31T09:51:15;24.40;78.10
30250;DHT22;17064;47.974;13.826;2023-07-31T09:56:17;24.60;71.40
30250;DHT22;17064;47.974;13.826;2023-07-31T10:01:18;24.50;76.70
30250;DHT22;17064;47.974;13.826;2023-07-31T10:06:19;24.50;73.70
30250;DHT22;17064;47.974;13.826;2023-07-31T10:11:21;24.70;78.20
30250;DHT22;17064;47.974;13.826;2023-07-31T10:16:22;24.70;70.10
30250;DHT22;17064;47.974;13.826;2023-07-31T10:21:23;24.30;75.70
30250;DHT22;17064;47.974;13.826;2023-07-31T10:26:25;24.20;78.20
30250;DHT22;17064;47.974;13.826;2023-07-31T10:31:29;24.20;76.20
30250;DHT22;17064;47.974;13.826;2023-07-31T10:36:30;24.20;75.10
30250;DHT22;17064;47.974;13.826;2023-07-31T10:41:31;24.20;76.80
30250;DHT22;17064;47.974;13.826;2023-07-31T10:46:35;24.20;78.60
30250;DHT22;17064;47.974;13.826;2023-07-31T10:51:37;24.60;73.20
30250;DHT22;17064;47.974;13.826;2023-07-31T10:56:38;24.70;75.90
30250;DHT22;17064;47.974;13.826;2023-07-31T11:01:56;24.60;70.30
30250;DHT22;17064;47.974;13.826;2023-07-31T11:07:03;24.30;76.40
30250;DHT22;17064;47.974;13.826;2023-07-31T11:12:06;24.20;76.50
30250;DHT22;17064;47.974;13.826;2023-07-31T11:17:08;24.20;76.00
30250;DHT22;17064;47.974;13.826;2023-07-31T11:22:09;24.00;71.70
30250;DHT22;17064;47.974;13.826;2023-07-31T11:27:09;23.90;71.70
30250;DHT22;17064;47.974;13.826;2023-07-31T11:32:16;23.70;75.80
30250;DHT22;17064;47.974;13.826;2023-07-31T11:37:18;23.50;76.10
30250;DHT22;17064;47.974;13.826;2023-07-31T11:42:18;23.20;74.80
30250;DHT22;17064;47.974;13.826;2023-07-31T11:47:19;23.00;75.90
30250;DHT22;17064;47.974;13.826;2023-07-31T11:52:20;22.90;80.40
30250;DHT22;17064;47.974;13.826;2023-07-31T11:57:21;23.10;82.50
30250;DHT22;17064;47.974;13.826;2023-07-31T12:02:22;23.20;74.50
30250;DHT22;17064;47.974;13.826;2023-07-31T12:07:24;23.20;75.20
30250;DHT22;17064;47.974;13.826;2023-07-31T12:12:26;23.00;76.80
30250;DHT22;17064;47.974;13.826;2023-07-31T12:17:26;22.90;79.70
30250;DHT22;17064;47.974;13.826;2023-07-31T12:22:27;23.10;76.20
30250;DHT22;17064;47.974;13.826;2023-07-31T12:27:32;23.20;74.90
30250;DHT22;17064;47.974;13.826;2023-07-31T12:32:34;23.40;80.50
30250;DHT22;17064;47.974;13.826;2023-07-31T12:37:35;23.60;79.30
30250;DHT22;17064;47.974;13.826;2023-07-31T12:42:35;23.90;75.90
30250;DHT22;17064;47.974;13.826;2023-07-31T12:47:36;24.00;73.80
30250;DHT22;17064;47.974;13.826;2023-07-31T12:52:37;24.00;79.80
30250;DHT22;17064;47.974;13.826;2023-07-31T12:57:39;24.20;74.30
30250;DHT22;17064;47.974;13.826;2023-07-31T13:02:39;24.40;71.40
30250;DHT22;17064;47.974;13.826;2023-07-31T13:07:40;24.40;71.80
30250;DHT22;17064;47.974;13.826;2023-07-31T13:12:41;24.30;72.80
30250;DHT22;17064;47.974;13.826;2023-07-31T13:17:42;24.30;71.40
30250;DHT22;17064;47.974;13.826;2023-07-31T13:22:43;24.50;72.90
30250;DHT22;17064;47.974;13.826;2023-07-31T13:27:44;24.50;77.30
30250;DHT22;17064;47.974;13.826;2023-07-31T13:32:44;24.70;75.70
30250;DHT22;17064;47.974;13.826;2023-07-31T13:37:45;24.70;75.80
30250;DHT22;17064;47.974;13.826;2023-07-31T13:42:47;24.70;71.20
30250;DHT22;17064;47.974;13.826;2023-07-31T13:47:50;24.60;68.70
30250;DHT22;17064;47.974;13.826;2023-07-31T13:52:51;24.30;74.60
30250;DHT22;17064;47.974;13.826;2023-07-31T13:57:52;24.20;74.30
30250;DHT22;17064;47.974;13.826;2023-07-31T14:02:53;24.10;72.10
30250;DHT22;17064;47.974;13.826;2023-07-31T14:07:54;24.20;68.40
30250;DHT22;17064;47.974;13.826;2023-07-31T14:12:55;24.10;69.00
30250;DHT22;17064;47.974;13.826;2023-07-31T14:17:56;24.10;70.00
30250;DHT22;17064;47.974;13.826;2023-07-31T14:22:56;24.00;71.20
30250;DHT22;17064;47.974;13.826;2023-07-31T14:27:57;24.00;67.40
30250;DHT22;17064;47.974;13.826;2023-07-31T14:32:58;23.80;72.10
30250;DHT22;17064;47.974;13.826;2023-07-31T14:38:01;23.80;69.90
30250;DHT22;17064;47.974;13.826;2023-07-31T14:43:02;23.80;72.60
30250;DHT22;17064;47.974;13.826;2023-07-31T14:48:02;23.90;68.70
30250;DHT22;17064;47.974;13.826;2023-07-31T14:53:03;23.70;72.00
30250;DHT22;17064;47.974;13.826;2023-07-31T14:58:04;23.60;75.90
30250;DHT22;17064;47.974;13.826;2023-07-31T15:03:05;23.50;73.70
30250;DHT22;17064;47.974;13.826;2023-07-31T15:08:05;23.50;74.60
30250;DHT22;17064;47.974;13.826;2023-07-31T15:13:06;23.50;71.60
30250;DHT22;17064;47.974;13.826;2023-07-31T15:18:07;23.60;75.80
30250;DHT22;17064;47.974;13.826;2023-07-31T15:23:07;23.70;76.70
30250;DHT22;17064;47.974;13.826;2023-07-31T15:28:08;23.80;76.00
30250;DHT22;17064;47.974;13.826;2023-07-31T15:33:09;23.80;75.30
30250;DHT22;17064;47.974;13.826;2023-07-31T15:38:10;23.80;71.00
30250;DHT22;17064;47.974;13.826;2023-07-31T15:43:11;23.60;75.00
30250;DHT22;17064;47.974;13.826;2023-07-31T15:48:12;23.60;76.10
30250;DHT22;17064;47.974;13.826;2023-07-31T15:53:12;23.70;76.70
30250;DHT22;17064;47.974;13.826;2023-07-31T15:58:13;23.90;74.80
30250;DHT22;17064;47.974;13.826;2023-07-31T16:03:14;23.90;73.60
30250;DHT22;17064;47.974;13.826;2023-07-31T16:08:14;23.90;74.70
30250;DHT22;17064;47.974;13.826;2023-07-31T16:13:15;23.90;75.80
30250;DHT22;17064;47.974;13.826;2023-07-31T16:18:16;23.90;75.60
30250;DHT22;17064;47.974;13.826;2023-07-31T16:23:16;23.90;74.40
30250;DHT22;17064;47.974;13.826;2023-07-31T16:28:17;23.80;72.20
30250;DHT22;17064;47.974;13.826;2023-07-31T16:33:18;23.70;73.60
30250;DHT22;17064;47.974;13.826;2023-07-31T16:38:18;23.60;76.30
30250;DHT22;17064;47.974;13.826;2023-07-31T16:43:19;23.50;78.10
30250;DHT22;17064;47.974;13.826;2023-07-31T16:48:20;23.40;79.10
30250;DHT22;17064;47.974;13.826;2023-07-31T16:53:20;23.40;78.70
30250;DHT22;17064;47.974;13.826;2023-07-31T16:58:21;23.40;78.40
30250;DHT22;17064;47.974;13.826;2023-07-31T17:03:22;23.40;77.80
30250;DHT22;17064;47.974;13.826;2023-07-31T17:08:23;23.30;79.00
30250;DHT22;17064;47.974;13.826;2023-07-31T17:13:23;23.20;78.90
30250;DHT22;17064;47.974;13.826;2023-07-31T17:18:24;23.00;79.50
30250;DHT22;17064;47.974;13.826;2023-07-31T17:23:26;22.90;77.60
30250;DHT22;17064;47.974;13.826;2023-07-31T17:28:27;22.70;78.30
30250;DHT22;17064;47.974;13.826;2023-07-31T17:33:28;22.60;78.50
30250;DHT22;17064;47.974;13.826;2023-07-31T17:38:29;22.50;79.90
30250;DHT22;17064;47.974;13.826;2023-07-31T17:43:30;22.40;80.10
30250;DHT22;17064;47.974;13.826;2023-07-31T17:48:32;22.40;80.40
30250;DHT22;17064;47.974;13.826;2023-07-31T17:53:33;22.30;81.70
30250;DHT22;17064;47.974;13.826;2023-07-31T17:58:34;22.20;82.00
30250;DHT22;17064;47.974;13.826;2023-07-31T18:03:35;22.20;83.20
30250;DHT22;17064;47.974;13.826;2023-07-31T18:08:36;22.10;83.70
30250;DHT22;17064;47.974;13.826;2023-07-31T18:13:37;21.90;83.70
30250;DHT22;17064;47.974;13.826;2023-07-31T18:18:41;21.80;84.50
30250;DHT22;17064;47.974;13.826;2023-07-31T18:23:42;21.70;84.60
30250;DHT22;17064;47.974;13.826;2023-07-31T18:28:43;21.60;85.60
30250;DHT22;17064;47.974;13.826;2023-07-31T18:33:44;21.50;87.20
30250;DHT22;17064;47.974;13.826;2023-07-31T18:38:45;21.40;89.90
30250;DHT22;17064;47.974;13.826;2023-07-31T18:43:46;21.30;90.90
30250;DHT22;17064;47.974;13.826;2023-07-31T18:48:47;21.20;92.10
30250;DHT22;17064;47.974;13.826;2023-07-31T18:53:48;21.00;93.10
30250;DHT22;17064;47.974;13.826;2023-07-31T18:58:49;20.90;94.20
30250;DHT22;17064;47.974;13.826;2023-07-31T19:03:52;20.80;95.60
30250;DHT22;17064;47.974;13.826;2023-07-31T19:08:53;20.70;97.80
30250;DHT22;17064;47.974;13.826;2023-07-31T19:13:55;20.60;99.90
30250;DHT22;17064;47.974;13.826;2023-07-31T19:18:57;20.50;99.90
30250;DHT22;17064;47.974;13.826;2023-07-31T19:23:59;20.50;99.90
30250;DHT22;17064;47.974;13.826;2023-07-31T19:29:00;20.40;99.90
30250;DHT22;17064;47.974;13.826;2023-07-31T19:34:02;20.30;99.90
30250;DHT22;17064;47.974;13.826;2023-07-31T19:39:03;20.20;99.90
30250;DHT22;17064;47.974;13.826;2023-07-31T19:44:04;20.20;99.90
30250;DHT22;17064;47.974;13.826;2023-07-31T19:49:05;20.10;99.90
30250;DHT22;17064;47.974;13.826;2023-07-31T19:54:06;20.00;99.90
30250;DHT22;17064;47.974;13.826;2023-07-31T19:59:08;19.90;99.90
30250;DHT22;17064;47.974;13.826;2023-07-31T20:04:09;19.90;99.90
30250;DHT22;17064;47.974;13.826;2023-07-31T20:09:10;19.80;99.90
30250;DHT22;17064;47.974;13.826;2023-07-31T20:14:11;19.70;99.90
30250;DHT22;17064;47.974;13.826;2023-07-31T20:19:13;19.60;99.90
30250;DHT22;17064;47.974;13.826;2023-07-31T20:24:14;19.50;99.90
30250;DHT22;17064;47.974;13.826;2023-07-31T20:29:15;19.40;99.90
30250;DHT22;17064;47.974;13.826;2023-07-31T20:34:17;19.30;99.90
30250;DHT22;17064;47.974;13.826;2023-07-31T20:39:18;19.20;99.90
30250;DHT22;17064;47.974;13.826;2023-07-31T20:44:19;19.20;99.90
30250;DHT22;17064;47.974;13.826;2023-07-31T20:49:20;19.10;99.90
30250;DHT22;17064;47.974;13.826;2023-07-31T20:54:21;19.00;99.90
30250;DHT22;17064;47.974;13.826;2023-07-31T20:59:22;18.90;99.90
30250;DHT22;17064;47.974;13.826;2023-07-31T21:04:25;18.80;99.90
30250;DHT22;17064;47.974;13.826;2023-07-31T21:09:26;18.70;99.90
30250;DHT22;17064;47.974;13.826;2023-07-31T21:14:27;18.60;99.90
30250;DHT22;17064;47.974;13.826;2023-07-31T21:19:28;18.60;99.90
30250;DHT22;17064;47.974;13.826;2023-07-31T21:24:28;18.50;99.90
30250;DHT22;17064;47.974;13.826;2023-07-31T21:29:29;18.50;99.90
30250;DHT22;17064;47.974;13.826;2023-07-31T21:34:30;18.50;99.90
30250;DHT22;17064;47.974;13.826;2023-07-31T21:39:31;18.50;99.90
30250;DHT22;17064;47.974;13.826;2023-07-31T21:44:31;18.50;99.90
30250;DHT22;17064;47.974;13.826;2023-07-31T21:49:32;18.50;99.90
30250;DHT22;17064;47.974;13.826;2023-07-31T21:54:33;18.50;99.90
30250;DHT22;17064;47.974;13.826;2023-07-31T21:59:33;18.50;99.90
30250;DHT22;17064;47.974;13.826;2023-07-31T22:04:36;18.30;99.90
30250;DHT22;17064;47.974;13.826;2023-07-31T22:09:38;18.20;99.90
30250;DHT22;17064;47.974;13.826;2023-07-31T22:14:39;18.10;99.90
30250;DHT22;17064;47.974;13.826;2023-07-31T22:19:40;18.00;99.90
30250;DHT22;17064;47.974;13.826;2023-07-31T22:24:40;17.80;99.90
30250;DHT22;17064;47.974;13.826;2023-07-31T22:29:42;17.60;99.90
30250;DHT22;17064;47.974;13.826;2023-07-31T22:34:42;17.50;99.90
30250;DHT22;17064;47.974;13.826;2023-07-31T22:39:44;17.40;99.90
30250;DHT22;17064;47.974;13.826;2023-07-31T22:44:44;17.30;99.90
30250;DHT22;17064;47.974;13.826;2023-07-31T22:49:45;17.30;99.90
30250;DHT22;17064;47.974;13.826;2023-07-31T22:54:46;17.30;99.90
30250;DHT22;17064;47.974;13.826;2023-07-31T22:59:47;17.30;99.90
30250;DHT22;17064;47.974;13.826;2023-07-31T23:04:47;17.30;99.90
30250;DHT22;17064;47.974;13.826;2023-07-31T23:09:48;17.30;99.90
30250;DHT22;17064;47.974;13.826;2023-07-31T23:14:52;17.20;99.90
30250;DHT22;17064;47.974;13.826;2023-07-31T23:19:53;17.10;99.90
30250;DHT22;17064;47.974;13.826;2023-07-31T23:24:53;17.00;99.90
30250;DHT22;17064;47.974;13.826;2023-07-31T23:29:54;16.90;99.90
30250;DHT22;17064;47.974;13.826;2023-07-31T23:34:55;16.90;99.90
30250;DHT22;17064;47.974;13.826;2023-07-31T23:39:55;16.90;99.90
30250;DHT22;17064;47.974;13.826;2023-07-31T23:44:56;16.90;99.90
30250;DHT22;17064;47.974;13.826;2023-07-31T23:49:57;16.90;99.90
30250;DHT22;17064;47.974;13.826;2023-07-31T23:54:58;16.90;99.90
30250;DHT22;17064;47.974;13.826;2023-07-31T23:59:59;16.90;99.90
